Hancock, Maryland
Current Conditions -  °F | °C
As of 2:53 AM on Wednesday 22 Oct 2014 (Local Time) from KMRB Reporting Station
Overcast Overcast  
Wind Chill: 52°   Ceiling: 6500
Heat Index: 52°   Visibility: 10mi
Dew Point: 46°   Wind: 8mph
Humidity: 80%   Direction: 340°NNW
Pressure: 29.92"   Gusts: NA
Location:  39.7°N, 78.18°W
Report Text: KMRB 220653Z AUTO 34007KT 10SM FEW035 BKN065 OVC085 11/08 A2992 RMK AO2 RAE16 SLP130 P0000 T01110078 TSNO
Loading
Personal Weather Stations






























Interactive Weather Map New forecast layout! Learn more

10-Day Weather Forecast

Advertisements
Track Severe Weather on mobile